createdAt,value
2022-11-21T00:00:04.904Z,6.000000
2022-11-21T00:01:00.205Z,6.000000
2022-11-21T00:02:00.338Z,6.000000
2022-11-21T00:03:00.253Z,6.000000
2022-11-21T00:04:00.297Z,6.000000
2022-11-21T00:05:03.649Z,6.000000
2022-11-21T00:06:00.371Z,6.000000
2022-11-21T00:07:00.330Z,6.000000
2022-11-21T00:08:00.336Z,6.000000
2022-11-21T00:09:00.287Z,6.000000
2022-11-21T00:10:04.660Z,6.000000
2022-11-21T00:11:00.352Z,6.000000
2022-11-21T00:12:00.372Z,6.000000
2022-11-21T00:13:00.304Z,6.000000
2022-11-21T00:14:00.368Z,6.000000
2022-11-21T00:15:03.165Z,6.000000
2022-11-21T00:16:00.399Z,6.000000
2022-11-21T00:17:00.325Z,6.000000
2022-11-21T00:18:00.420Z,6.000000
2022-11-21T00:19:00.355Z,6.000000
2022-11-21T00:20:03.811Z,6.000000
2022-11-21T00:21:00.413Z,6.000000
2022-11-21T00:22:00.425Z,6.000000
2022-11-21T00:23:00.381Z,6.000000
2022-11-21T00:24:00.444Z,6.000000
2022-11-21T00:25:03.791Z,6.100000
2022-11-21T00:26:00.462Z,6.100000
2022-11-21T00:27:00.466Z,6.100000
2022-11-21T00:28:00.469Z,6.100000
2022-11-21T00:29:00.405Z,6.100000
2022-11-21T00:30:03.874Z,6.100000
2022-11-21T00:31:00.440Z,6.100000
2022-11-21T00:32:00.508Z,6.100000
2022-11-21T00:33:00.664Z,6.100000
2022-11-21T00:34:00.522Z,6.100000
2022-11-21T00:35:03.681Z,6.100000
2022-11-21T00:36:00.540Z,6.100000
2022-11-21T00:37:00.482Z,6.100000
2022-11-21T00:38:00.542Z,6.100000
2022-11-21T00:39:00.523Z,6.100000
2022-11-21T00:40:04.954Z,6.100000
2022-11-21T00:41:00.497Z,6.100000
2022-11-21T00:42:00.580Z,6.100000
2022-11-21T00:43:00.634Z,6.100000
2022-11-21T00:44:00.567Z,6.100000
2022-11-21T00:45:05.704Z,6.100000
2022-11-21T00:46:00.613Z,6.100000
2022-11-21T00:47:00.546Z,6.100000
2022-11-21T00:48:00.628Z,6.100000
2022-11-21T00:49:00.569Z,6.100000
2022-11-21T00:50:05.989Z,6.100000
2022-11-21T00:51:00.970Z,6.100000
2022-11-21T00:52:00.671Z,6.100000
2022-11-21T00:53:00.595Z,6.100000
2022-11-21T00:54:00.666Z,6.100000
2022-11-21T00:55:03.789Z,6.100000
2022-11-21T00:56:00.673Z,6.100000
2022-11-21T00:57:00.650Z,6.100000
2022-11-21T00:58:00.720Z,6.100000
2022-11-21T00:59:00.672Z,6.100000
2022-11-21T01:00:04.990Z,6.100000
2022-11-21T01:01:00.713Z,6.100000
2022-11-21T01:02:00.729Z,6.100000
2022-11-21T01:03:00.707Z,6.100000
2022-11-21T01:04:00.746Z,6.100000
2022-11-21T01:05:03.806Z,6.100000
2022-11-21T01:06:00.776Z,6.200000
2022-11-21T01:07:00.728Z,6.200000
2022-11-21T01:08:00.772Z,6.200000
2022-11-21T01:09:00.770Z,6.200000
2022-11-21T01:10:05.075Z,6.200000
2022-11-21T01:11:00.729Z,6.200000
2022-11-21T01:12:00.805Z,6.200000
2022-11-21T01:13:00.747Z,6.200000
2022-11-21T01:14:00.811Z,6.200000
2022-11-21T01:15:03.699Z,6.200000
2022-11-21T01:16:00.826Z,6.200000
2022-11-21T01:17:00.774Z,6.200000
2022-11-21T01:18:00.851Z,6.200000
2022-11-21T01:19:00.780Z,6.200000
2022-11-21T01:20:04.231Z,6.200000
2022-11-21T01:21:00.822Z,6.200000
2022-11-21T01:22:00.884Z,6.200000
2022-11-21T01:23:00.827Z,6.200000
2022-11-21T01:24:00.926Z,6.200000
2022-11-21T01:25:03.766Z,6.200000
2022-11-21T01:26:00.935Z,6.200000
2022-11-21T01:27:00.854Z,6.200000
2022-11-21T01:28:00.931Z,6.200000
2022-11-21T01:29:00.872Z,6.300000
2022-11-21T01:30:04.502Z,6.300000
2022-11-21T01:31:00.885Z,6.300000
2022-11-21T01:32:00.973Z,6.300000
2022-11-21T01:33:00.908Z,6.300000
2022-11-21T01:34:00.967Z,6.300000
2022-11-21T01:35:03.894Z,6.300000
2022-11-21T01:36:00.997Z,6.300000
2022-11-21T01:37:00.950Z,6.300000
2022-11-21T01:38:01.154Z,6.300000
2022-11-21T01:39:00.955Z,6.300000
2022-11-21T01:40:05.255Z,6.300000
2022-11-21T01:41:00.969Z,6.300000
2022-11-21T01:42:01.030Z,6.300000
2022-11-21T01:43:00.973Z,6.300000
2022-11-21T01:44:01.106Z,6.300000
2022-11-21T01:45:05.581Z,6.300000
2022-11-21T01:46:01.084Z,6.300000
2022-11-21T01:47:01.019Z,6.300000
2022-11-21T01:48:01.115Z,6.300000
2022-11-21T01:49:01.036Z,6.300000
2022-11-21T01:50:07.204Z,6.300000
2022-11-21T01:51:01.061Z,6.300000
2022-11-21T01:52:01.121Z,6.300000
2022-11-21T01:53:01.052Z,6.300000
2022-11-21T01:54:01.132Z,6.300000
2022-11-21T01:55:04.084Z,6.300000
2022-11-21T01:56:01.178Z,6.300000
2022-11-21T01:57:01.109Z,6.300000
2022-11-21T01:58:01.180Z,6.300000
2022-11-21T01:59:01.123Z,6.300000
2022-11-21T02:00:05.573Z,6.300000
2022-11-21T02:01:01.226Z,6.300000
2022-11-21T02:02:01.237Z,6.300000
2022-11-21T02:03:01.177Z,6.300000
2022-11-21T02:04:01.228Z,6.300000
2022-11-21T02:05:04.311Z,6.300000
2022-11-21T02:06:00.258Z,6.300000
2022-11-21T02:07:00.256Z,6.300000
2022-11-21T02:08:00.287Z,6.300000
2022-11-21T02:09:00.208Z,6.200000
2022-11-21T02:10:04.581Z,6.200000
2022-11-21T02:11:00.223Z,6.200000
2022-11-21T02:12:00.320Z,6.200000
2022-11-21T02:13:00.232Z,6.200000
2022-11-21T02:14:00.329Z,6.200000
2022-11-21T02:15:03.657Z,6.200000
2022-11-21T02:16:00.332Z,6.200000
2022-11-21T02:17:00.286Z,6.200000
2022-11-21T02:18:00.350Z,6.200000
2022-11-21T02:19:00.277Z,6.200000
2022-11-21T02:20:04.712Z,6.200000
2022-11-21T02:21:00.313Z,6.200000
2022-11-21T02:22:00.376Z,6.200000
2022-11-21T02:23:00.317Z,6.200000
2022-11-21T02:24:00.727Z,6.200000
2022-11-21T02:25:03.640Z,6.200000
2022-11-21T02:26:01.259Z,6.200000
2022-11-21T02:27:00.335Z,6.100000
2022-11-21T02:28:00.492Z,6.100000
2022-11-21T02:29:00.342Z,6.100000
2022-11-21T02:30:04.976Z,6.100000
2022-11-21T02:31:00.374Z,6.100000
2022-11-21T02:32:00.471Z,6.100000
2022-11-21T02:33:00.398Z,6.100000
2022-11-21T02:34:00.728Z,6.000000
2022-11-21T02:35:04.745Z,6.000000
2022-11-21T02:36:00.603Z,6.000000
2022-11-21T02:37:00.411Z,6.000000
2022-11-21T02:38:00.933Z,6.000000
2022-11-21T02:39:00.425Z,6.000000
2022-11-21T02:40:05.213Z,6.000000
2022-11-21T02:41:00.444Z,6.000000
2022-11-21T02:42:01.075Z,6.000000
2022-11-21T02:43:00.454Z,6.000000
2022-11-21T02:44:01.175Z,6.000000
2022-11-21T02:45:03.814Z,6.000000
2022-11-21T02:46:01.054Z,6.000000
2022-11-21T02:47:00.502Z,5.900000
2022-11-21T02:48:04.286Z,5.900000
2022-11-21T02:49:00.519Z,5.900000
2022-11-21T02:50:03.986Z,5.900000
2022-11-21T02:51:00.535Z,5.900000
2022-11-21T02:52:01.441Z,5.900000
2022-11-21T02:53:00.550Z,5.900000
2022-11-21T02:54:01.291Z,5.900000
2022-11-21T02:55:03.703Z,5.900000
2022-11-21T02:56:01.758Z,5.900000
2022-11-21T02:57:00.598Z,5.900000
2022-11-21T02:58:04.870Z,5.900000
2022-11-21T02:59:00.603Z,5.900000
2022-11-21T03:00:06.196Z,5.900000
2022-11-21T03:01:00.690Z,5.900000
2022-11-21T03:02:01.212Z,5.800000
2022-11-21T03:03:00.647Z,5.800000
2022-11-21T03:04:00.729Z,5.800000
2022-11-21T03:05:03.676Z,5.800000
2022-11-21T03:06:00.741Z,5.800000
2022-11-21T03:07:00.670Z,5.800000
2022-11-21T03:08:00.798Z,5.800000
2022-11-21T03:09:00.686Z,5.800000
2022-11-21T03:10:05.033Z,5.800000
2022-11-21T03:11:00.692Z,5.800000
2022-11-21T03:12:00.773Z,5.800000
2022-11-21T03:13:00.873Z,5.800000
2022-11-21T03:14:00.797Z,5.800000
2022-11-21T03:15:03.748Z,5.800000
2022-11-21T03:16:00.803Z,5.800000
2022-11-21T03:17:00.733Z,5.800000
2022-11-21T03:18:00.835Z,5.800000
2022-11-21T03:19:00.759Z,5.800000
2022-11-21T03:20:05.163Z,5.800000
2022-11-21T03:21:00.792Z,5.800000
2022-11-21T03:22:00.858Z,5.800000
2022-11-21T03:23:00.792Z,5.800000
2022-11-21T03:24:00.873Z,5.800000
2022-11-21T03:25:03.672Z,5.800000
2022-11-21T03:26:00.907Z,5.800000
2022-11-21T03:27:00.828Z,5.800000
2022-11-21T03:28:00.900Z,5.800000
2022-11-21T03:29:00.826Z,5.800000
2022-11-21T03:30:05.761Z,5.800000
2022-11-21T03:31:00.850Z,5.800000
2022-11-21T03:32:00.936Z,5.800000
2022-11-21T03:33:00.876Z,5.800000
2022-11-21T03:34:00.931Z,5.800000
2022-11-21T03:35:07.435Z,5.700000
2022-11-21T03:36:00.963Z,5.700000
2022-11-21T03:37:00.892Z,5.700000
2022-11-21T03:38:00.983Z,5.700000
2022-11-21T03:39:00.922Z,5.700000
2022-11-21T03:40:06.494Z,5.700000
2022-11-21T03:41:00.925Z,5.700000
2022-11-21T03:42:00.989Z,5.700000
2022-11-21T03:43:00.939Z,5.700000
2022-11-21T03:44:01.045Z,5.700000
2022-11-21T03:45:03.792Z,5.700000
2022-11-21T03:46:01.025Z,5.700000
2022-11-21T03:47:00.955Z,5.700000
2022-11-21T03:48:01.038Z,5.700000
2022-11-21T03:49:00.975Z,5.700000
2022-11-21T03:50:06.268Z,5.600000
2022-11-21T03:51:01.023Z,5.600000
2022-11-21T03:52:01.064Z,5.600000
2022-11-21T03:53:00.992Z,5.600000
2022-11-21T03:54:01.066Z,5.600000
2022-11-21T03:55:04.704Z,5.600000
2022-11-21T03:56:01.109Z,5.600000
2022-11-21T03:57:01.036Z,5.600000
2022-11-21T03:58:01.100Z,5.600000
2022-11-21T03:59:01.042Z,5.600000
2022-11-21T04:00:05.470Z,5.600000
2022-11-21T04:01:01.123Z,5.600000
2022-11-21T04:02:01.250Z,5.600000
2022-11-21T04:03:01.089Z,5.600000
2022-11-21T04:04:01.173Z,5.600000
2022-11-21T04:05:04.034Z,5.600000
2022-11-21T04:06:01.210Z,5.600000
2022-11-21T04:07:01.154Z,5.600000
2022-11-21T04:08:01.211Z,5.600000
2022-11-21T04:09:01.135Z,5.600000
2022-11-21T04:10:04.507Z,5.600000
2022-11-21T04:11:01.147Z,5.600000
2022-11-21T04:12:06.420Z,5.600000
2022-11-21T04:13:01.157Z,5.600000
2022-11-21T04:14:01.277Z,5.600000
2022-11-21T04:15:07.011Z,5.600000
2022-11-21T04:16:00.254Z,5.600000
2022-11-21T04:17:00.177Z,5.600000
2022-11-21T04:18:00.280Z,5.600000
2022-11-21T04:19:00.197Z,5.600000
2022-11-21T04:20:04.863Z,5.600000
2022-11-21T04:21:00.233Z,5.600000
2022-11-21T04:22:00.309Z,5.600000
2022-11-21T04:23:00.224Z,5.600000
2022-11-21T04:24:00.330Z,5.600000
2022-11-21T04:25:03.123Z,5.600000
2022-11-21T04:26:00.345Z,5.600000
2022-11-21T04:27:00.270Z,5.600000
2022-11-21T04:28:00.324Z,5.600000
2022-11-21T04:29:00.259Z,5.600000
2022-11-21T04:30:05.198Z,5.600000
2022-11-21T04:31:00.785Z,5.600000
2022-11-21T04:32:00.416Z,5.600000
2022-11-21T04:33:00.315Z,5.600000
2022-11-21T04:34:00.383Z,5.600000
2022-11-21T04:35:03.654Z,5.600000
2022-11-21T04:36:00.432Z,5.600000
2022-11-21T04:37:00.428Z,5.600000
2022-11-21T04:38:00.452Z,5.600000
2022-11-21T04:39:00.367Z,5.600000
2022-11-21T04:40:05.401Z,5.600000
2022-11-21T04:41:00.365Z,5.600000
2022-11-21T04:42:07.722Z,5.600000
2022-11-21T04:43:00.552Z,5.500000
2022-11-21T04:44:00.510Z,5.500000
2022-11-21T04:45:03.636Z,5.500000
2022-11-21T04:46:00.503Z,5.500000
2022-11-21T04:47:05.086Z,5.500000
2022-11-21T04:48:00.829Z,5.500000
2022-11-21T04:49:00.424Z,5.500000
2022-11-21T04:50:03.984Z,5.500000
2022-11-21T04:51:00.464Z,5.500000
2022-11-21T04:52:00.839Z,5.500000
2022-11-21T04:53:00.448Z,5.400000
2022-11-21T04:54:00.598Z,5.400000
2022-11-21T04:55:03.675Z,5.400000
2022-11-21T04:56:00.840Z,5.400000
2022-11-21T04:57:00.516Z,5.400000
2022-11-21T04:58:00.578Z,5.400000
2022-11-21T04:59:00.505Z,5.400000
2022-11-21T05:00:04.991Z,5.400000
2022-11-21T05:01:00.638Z,5.400000
2022-11-21T05:02:00.672Z,5.400000
2022-11-21T05:03:00.579Z,5.400000
2022-11-21T05:04:00.829Z,5.400000
2022-11-21T05:05:03.803Z,5.400000
2022-11-21T05:06:00.664Z,5.400000
2022-11-21T05:07:00.607Z,5.400000
2022-11-21T05:08:00.687Z,5.400000
2022-11-21T05:09:00.607Z,5.400000
2022-11-21T05:10:05.064Z,5.400000
2022-11-21T05:11:00.623Z,5.400000
2022-11-21T05:12:00.686Z,5.400000
2022-11-21T05:13:00.617Z,5.400000
2022-11-21T05:14:00.726Z,5.400000
2022-11-21T05:15:04.852Z,5.400000
2022-11-21T05:16:00.703Z,5.400000
2022-11-21T05:17:00.673Z,5.400000
2022-11-21T05:18:00.832Z,5.400000
2022-11-21T05:19:00.668Z,5.400000
2022-11-21T05:20:07.159Z,5.400000
2022-11-21T05:21:00.677Z,5.400000
2022-11-21T05:22:00.818Z,5.400000
2022-11-21T05:23:00.699Z,5.400000
2022-11-21T05:24:00.785Z,5.400000
2022-11-21T05:25:05.577Z,5.400000
2022-11-21T05:26:00.871Z,5.400000
2022-11-21T05:27:00.747Z,5.500000
2022-11-21T05:28:00.795Z,5.500000
2022-11-21T05:29:00.744Z,5.500000
2022-11-21T05:30:05.137Z,5.500000
2022-11-21T05:31:00.763Z,5.500000
2022-11-21T05:32:00.864Z,5.500000
2022-11-21T05:33:00.792Z,5.500000
2022-11-21T05:34:00.867Z,5.500000
2022-11-21T05:35:03.901Z,5.500000
2022-11-21T05:36:00.894Z,5.500000
2022-11-21T05:37:00.815Z,5.500000
2022-11-21T05:38:00.911Z,5.500000
2022-11-21T05:39:00.826Z,5.500000
2022-11-21T05:40:04.119Z,5.500000
2022-11-21T05:41:00.866Z,5.500000
2022-11-21T05:42:03.120Z,5.500000
2022-11-21T05:43:00.853Z,5.500000
2022-11-21T05:44:00.970Z,5.500000
2022-11-21T05:45:03.817Z,5.500000
2022-11-21T05:46:00.945Z,5.500000
2022-11-21T05:47:00.896Z,5.500000
2022-11-21T05:48:00.984Z,5.500000
2022-11-21T05:49:00.895Z,5.500000
2022-11-21T05:50:05.519Z,5.500000
2022-11-21T05:51:00.934Z,5.500000
2022-11-21T05:52:00.990Z,5.500000
2022-11-21T05:53:00.928Z,5.500000
2022-11-21T05:54:01.018Z,5.500000
2022-11-21T05:55:03.816Z,5.500000
2022-11-21T05:56:01.161Z,5.500000
2022-11-21T05:57:01.014Z,5.500000
2022-11-21T05:58:01.079Z,5.500000
2022-11-21T05:59:00.977Z,5.500000
2022-11-21T06:00:04.569Z,5.500000
2022-11-21T06:01:01.033Z,5.500000
2022-11-21T06:02:01.161Z,5.500000
2022-11-21T06:03:01.093Z,5.500000
2022-11-21T06:04:01.130Z,5.500000
2022-11-21T06:05:03.920Z,5.500000
2022-11-21T06:06:01.158Z,5.500000
2022-11-21T06:07:01.165Z,5.600000
2022-11-21T06:08:01.178Z,5.600000
2022-11-21T06:09:01.088Z,5.600000
2022-11-21T06:10:04.370Z,5.600000
2022-11-21T06:11:01.106Z,5.600000
2022-11-21T06:12:01.206Z,5.600000
2022-11-21T06:13:01.124Z,5.600000
2022-11-21T06:14:01.223Z,5.600000
2022-11-21T06:15:05.247Z,5.600000
2022-11-21T06:16:01.221Z,5.600000
2022-11-21T06:17:01.148Z,5.600000
2022-11-21T06:18:01.238Z,5.600000
2022-11-21T06:19:01.163Z,5.600000
2022-11-21T06:20:06.502Z,5.600000
2022-11-21T06:21:01.202Z,5.600000
2022-11-21T06:22:00.852Z,5.600000
2022-11-21T06:23:00.206Z,5.600000
2022-11-21T06:24:00.311Z,5.600000
2022-11-21T06:25:03.089Z,5.600000
2022-11-21T06:26:00.858Z,5.600000
2022-11-21T06:27:00.239Z,5.600000
2022-11-21T06:28:00.348Z,5.600000
2022-11-21T06:29:00.250Z,5.500000
2022-11-21T06:30:03.783Z,5.500000
2022-11-21T06:31:00.262Z,5.500000
2022-11-21T06:32:00.383Z,5.500000
2022-11-21T06:33:00.301Z,5.500000
2022-11-21T06:34:00.837Z,5.500000
2022-11-21T06:35:03.112Z,5.500000
2022-11-21T06:36:00.388Z,5.500000
2022-11-21T06:37:00.319Z,5.500000
2022-11-21T06:38:00.425Z,5.500000
2022-11-21T06:39:00.334Z,5.500000
2022-11-21T06:40:04.691Z,5.500000
2022-11-21T06:41:00.340Z,5.500000
2022-11-21T06:42:00.439Z,5.500000
2022-11-21T06:43:00.363Z,5.500000
2022-11-21T06:44:00.624Z,5.500000
2022-11-21T06:45:03.749Z,5.500000
2022-11-21T06:46:00.440Z,5.500000
2022-11-21T06:47:00.395Z,5.500000
2022-11-21T06:48:00.880Z,5.500000
2022-11-21T06:49:00.394Z,5.500000
2022-11-21T06:50:03.915Z,5.500000
2022-11-21T06:51:00.420Z,5.500000
2022-11-21T06:52:00.839Z,5.500000
2022-11-21T06:53:00.416Z,5.500000
2022-11-21T06:54:00.523Z,5.500000
2022-11-21T06:55:03.751Z,5.500000
2022-11-21T06:56:00.861Z,5.500000
2022-11-21T06:57:00.467Z,5.500000
2022-11-21T06:58:00.521Z,5.500000
2022-11-21T06:59:00.513Z,5.500000
2022-11-21T07:00:04.969Z,5.500000
2022-11-21T07:01:00.517Z,5.500000
2022-11-21T07:02:00.582Z,5.500000
2022-11-21T07:03:03.270Z,5.500000
2022-11-21T07:04:00.826Z,5.500000
2022-11-21T07:05:03.675Z,5.500000
2022-11-21T07:06:00.673Z,5.500000
2022-11-21T07:07:00.621Z,5.500000
2022-11-21T07:08:00.915Z,5.500000
2022-11-21T07:09:30.899Z,5.500000
2022-11-21T07:10:05.004Z,5.500000
2022-11-21T07:11:23.101Z,5.500000
2022-11-21T07:12:00.663Z,5.500000
2022-11-21T07:13:00.595Z,5.500000
2022-11-21T07:14:03.828Z,5.500000
2022-11-21T07:15:05.160Z,5.500000
2022-11-21T07:16:00.691Z,5.500000
2022-11-21T07:17:00.636Z,5.500000
2022-11-21T07:18:00.953Z,5.500000
2022-11-21T07:19:00.649Z,5.500000
2022-11-21T07:20:04.414Z,5.500000
2022-11-21T07:21:00.675Z,5.500000
2022-11-21T07:22:00.885Z,5.500000
2022-11-21T07:23:00.678Z,5.500000
2022-11-21T07:24:00.771Z,5.500000
2022-11-21T07:25:03.832Z,5.500000
2022-11-21T07:26:00.879Z,5.500000
2022-11-21T07:27:00.696Z,5.500000
2022-11-21T07:28:00.811Z,5.500000
2022-11-21T07:29:00.719Z,5.500000
2022-11-21T07:30:05.400Z,5.500000
2022-11-21T07:31:01.060Z,5.500000
2022-11-21T07:32:00.832Z,5.500000
2022-11-21T07:33:00.899Z,5.500000
2022-11-21T07:34:01.023Z,5.500000
2022-11-21T07:35:04.119Z,5.500000
2022-11-21T07:36:00.894Z,5.500000
2022-11-21T07:37:00.762Z,5.500000
2022-11-21T07:38:00.887Z,5.500000
2022-11-21T07:39:00.797Z,5.500000
2022-11-21T07:40:05.269Z,5.500000
2022-11-21T07:41:00.765Z,5.500000
2022-11-21T07:42:00.870Z,5.500000
2022-11-21T07:43:00.797Z,5.500000
2022-11-21T07:44:00.964Z,5.500000
2022-11-21T07:45:03.692Z,5.500000
2022-11-21T07:46:00.910Z,5.500000
2022-11-21T07:47:00.876Z,5.500000
2022-11-21T07:48:01.172Z,5.500000
2022-11-21T07:49:03.520Z,5.500000
2022-11-21T07:50:04.840Z,5.500000
2022-11-21T07:51:00.884Z,5.500000
2022-11-21T07:52:00.951Z,5.500000
2022-11-21T07:53:00.912Z,5.500000
2022-11-21T07:54:00.951Z,5.500000
2022-11-21T07:55:03.874Z,5.500000
2022-11-21T07:56:00.989Z,5.500000
2022-11-21T07:57:00.906Z,5.500000
2022-11-21T07:58:00.982Z,5.500000
2022-11-21T07:59:00.923Z,5.500000
2022-11-21T08:00:05.298Z,5.500000
2022-11-21T08:01:00.951Z,5.500000
2022-11-21T08:02:01.260Z,5.500000
2022-11-21T08:03:01.044Z,5.500000
2022-11-21T08:04:01.046Z,5.500000
2022-11-21T08:05:04.036Z,5.500000
2022-11-21T08:06:01.066Z,5.500000
2022-11-21T08:07:01.059Z,5.500000
2022-11-21T08:08:01.092Z,5.500000
2022-11-21T08:09:01.029Z,5.500000
2022-11-21T08:10:32.191Z,5.500000
2022-11-21T08:11:01.020Z,5.500000
2022-11-21T08:12:01.121Z,5.500000
2022-11-21T08:13:01.042Z,5.500000
2022-11-21T08:14:01.145Z,5.500000
2022-11-21T08:15:05.447Z,5.500000
2022-11-21T08:16:01.163Z,5.500000
2022-11-21T08:17:01.072Z,5.500000
2022-11-21T08:18:01.517Z,5.500000
2022-11-21T08:19:01.086Z,5.500000
2022-11-21T08:20:06.198Z,5.500000
2022-11-21T08:21:01.103Z,5.500000
2022-11-21T08:22:01.241Z,5.500000
2022-11-21T08:23:01.106Z,5.500000
2022-11-21T08:24:01.199Z,5.500000
2022-11-21T08:25:05.329Z,5.500000
2022-11-21T08:26:01.238Z,5.500000
2022-11-21T08:27:01.169Z,5.500000
2022-11-21T08:28:01.229Z,5.500000
2022-11-21T08:29:01.154Z,5.600000
2022-11-21T08:30:05.557Z,5.600000
2022-11-21T08:31:01.180Z,5.600000
2022-11-21T08:32:01.268Z,5.600000
2022-11-21T08:33:01.211Z,5.600000
2022-11-21T08:34:00.872Z,5.600000
2022-11-21T08:35:03.120Z,5.600000
2022-11-21T08:36:00.293Z,5.600000
2022-11-21T08:37:00.229Z,5.600000
2022-11-21T08:38:00.339Z,5.600000
2022-11-21T08:39:00.253Z,5.600000
2022-11-21T08:40:03.709Z,5.600000
2022-11-21T08:41:00.258Z,5.600000
2022-11-21T08:42:00.341Z,5.600000
2022-11-21T08:43:00.280Z,5.600000
2022-11-21T08:44:00.376Z,5.600000
2022-11-21T08:45:03.101Z,5.600000
2022-11-21T08:46:00.410Z,5.700000
2022-11-21T08:47:00.389Z,5.700000
2022-11-21T08:48:00.858Z,5.700000
2022-11-21T08:49:00.322Z,5.700000
2022-11-21T08:50:08.843Z,5.700000
2022-11-21T08:51:00.339Z,5.700000
2022-11-21T08:52:00.862Z,5.700000
2022-11-21T08:53:00.332Z,5.700000
2022-11-21T08:54:00.430Z,5.700000
2022-11-21T08:55:08.041Z,5.700000
2022-11-21T08:56:04.223Z,5.700000
2022-11-21T08:57:00.380Z,5.700000
2022-11-21T08:58:00.638Z,5.700000
2022-11-21T08:59:00.526Z,5.700000
2022-11-21T09:00:05.088Z,5.700000
2022-11-21T09:01:00.466Z,5.700000
2022-11-21T09:02:00.562Z,5.700000
2022-11-21T09:03:00.432Z,5.700000
2022-11-21T09:04:01.024Z,5.700000
2022-11-21T09:05:06.450Z,5.700000
2022-11-21T09:06:00.724Z,5.700000
2022-11-21T09:07:00.707Z,5.800000
2022-11-21T09:08:00.829Z,5.800000
2022-11-21T09:09:00.469Z,5.800000
2022-11-21T09:10:03.877Z,5.800000
2022-11-21T09:11:00.625Z,5.800000
2022-11-21T09:12:00.620Z,5.800000
2022-11-21T09:13:00.527Z,5.800000
2022-11-21T09:14:00.643Z,5.900000
2022-11-21T09:15:03.800Z,5.900000
2022-11-21T09:16:00.709Z,5.900000
2022-11-21T09:17:02.305Z,6.000000
2022-11-21T09:18:00.863Z,6.000000
2022-11-21T09:19:00.725Z,6.000000
2022-11-21T09:20:04.965Z,6.000000
2022-11-21T09:21:00.658Z,6.000000
2022-11-21T09:22:00.625Z,6.000000
2022-11-21T09:23:00.752Z,6.000000
2022-11-21T09:24:00.664Z,6.100000
2022-11-21T09:25:04.783Z,6.100000
2022-11-21T09:26:00.650Z,6.100000
2022-11-21T09:27:00.703Z,6.200000
2022-11-21T09:28:00.651Z,6.200000
2022-11-21T09:29:00.604Z,6.300000
2022-11-21T09:30:05.459Z,6.300000
2022-11-21T09:31:00.628Z,6.300000
2022-11-21T09:32:00.857Z,6.300000
2022-11-21T09:33:00.649Z,6.300000
2022-11-21T09:34:00.726Z,6.400000
2022-11-21T09:35:03.735Z,6.400000
2022-11-21T09:36:00.777Z,6.400000
2022-11-21T09:37:00.697Z,6.500000
2022-11-21T09:38:00.733Z,6.600000
2022-11-21T09:39:00.692Z,6.700000
2022-11-21T09:40:05.012Z,6.700000
2022-11-21T09:41:00.692Z,6.700000
2022-11-21T09:42:00.840Z,6.700000
2022-11-21T09:43:00.816Z,6.700000
2022-11-21T09:44:00.789Z,7.000000
2022-11-21T09:45:03.913Z,7.000000
2022-11-21T09:46:00.822Z,7.000000
2022-11-21T09:47:00.789Z,7.100000
2022-11-21T09:48:00.979Z,7.100000
2022-11-21T09:49:00.754Z,7.100000
2022-11-21T09:50:04.226Z,7.300000
2022-11-21T09:51:00.794Z,7.300000
2022-11-21T09:52:00.818Z,7.200000
2022-11-21T09:53:01.165Z,7.200000
2022-11-21T09:54:00.897Z,7.200000
2022-11-21T09:55:03.827Z,7.200000
2022-11-21T09:56:00.848Z,7.200000
2022-11-21T09:57:00.834Z,7.200000
2022-11-21T09:58:00.884Z,7.200000
2022-11-21T09:59:00.834Z,7.200000
2022-11-21T10:00:05.834Z,7.200000
2022-11-21T10:01:00.965Z,7.200000
2022-11-21T10:02:00.949Z,7.200000
2022-11-21T10:03:00.888Z,7.200000
2022-11-21T10:04:00.953Z,7.100000
2022-11-21T10:05:04.137Z,7.100000
2022-11-21T10:06:00.983Z,7.100000
2022-11-21T10:07:01.023Z,7.000000
2022-11-21T10:08:00.993Z,7.000000
2022-11-21T10:09:01.123Z,7.000000
2022-11-21T10:10:05.466Z,7.000000
2022-11-21T10:11:07.420Z,7.000000
2022-11-21T10:12:01.027Z,7.000000
2022-11-21T10:13:00.968Z,6.900000
2022-11-21T10:14:01.975Z,6.900000
2022-11-21T10:15:03.779Z,7.000000
2022-11-21T10:16:01.075Z,7.000000
2022-11-21T10:17:00.974Z,6.900000
2022-11-21T10:18:01.056Z,6.900000
2022-11-21T10:19:00.983Z,6.900000
2022-11-21T10:20:05.916Z,6.900000
2022-11-21T10:21:01.015Z,6.900000
2022-11-21T10:22:01.121Z,7.000000
2022-11-21T10:23:01.007Z,7.000000
2022-11-21T10:24:01.100Z,7.000000
2022-11-21T10:25:05.193Z,7.000000
2022-11-21T10:26:01.094Z,7.000000
2022-11-21T10:27:01.041Z,7.000000
2022-11-21T10:28:01.160Z,7.000000
2022-11-21T10:29:01.080Z,7.000000
2022-11-21T10:30:07.796Z,7.100000
2022-11-21T10:31:01.111Z,7.100000
2022-11-21T10:32:01.149Z,7.100000
2022-11-21T10:33:01.102Z,7.300000
2022-11-21T10:34:01.321Z,7.300000
2022-11-21T10:35:03.985Z,7.500000
2022-11-21T10:36:01.191Z,7.500000
2022-11-21T10:37:01.133Z,7.600000
2022-11-21T10:38:01.228Z,7.600000
2022-11-21T10:39:01.267Z,7.600000
2022-11-21T10:40:05.600Z,7.600000
2022-11-21T10:41:01.184Z,7.600000
2022-11-21T10:42:33.775Z,7.600000
2022-11-21T10:43:01.194Z,7.600000
2022-11-21T10:44:01.240Z,7.600000
2022-11-21T10:45:04.275Z,7.500000
2022-11-21T10:46:00.280Z,7.500000
2022-11-21T10:47:00.198Z,7.400000
2022-11-21T10:48:03.872Z,7.400000
2022-11-21T10:49:00.292Z,7.400000
2022-11-21T10:50:03.860Z,7.400000
2022-11-21T10:51:00.219Z,7.400000
2022-11-21T10:52:00.315Z,7.300000
2022-11-21T10:53:00.225Z,7.300000
2022-11-21T10:54:06.194Z,7.300000
2022-11-21T10:55:04.933Z,7.200000
2022-11-21T10:56:00.334Z,7.200000
2022-11-21T10:57:00.296Z,7.200000
2022-11-21T10:58:00.409Z,7.200000
2022-11-21T10:59:00.430Z,7.200000
2022-11-21T11:00:03.877Z,7.100000
2022-11-21T11:01:00.377Z,7.100000
2022-11-21T11:02:00.407Z,7.100000
2022-11-21T11:03:00.356Z,7.200000
2022-11-21T11:04:26.053Z,7.200000
2022-11-21T11:05:04.646Z,7.200000
2022-11-21T11:06:00.433Z,7.200000
2022-11-21T11:07:00.633Z,7.200000
2022-11-21T11:08:00.879Z,7.200000
2022-11-21T11:09:00.423Z,7.200000
2022-11-21T11:10:03.774Z,7.200000
2022-11-21T11:11:01.882Z,7.200000
2022-11-21T11:12:00.639Z,7.200000
2022-11-21T11:13:02.157Z,7.200000
2022-11-21T11:14:00.466Z,7.200000
2022-11-21T11:15:04.645Z,7.400000
2022-11-21T11:16:00.485Z,7.400000
2022-11-21T11:17:00.431Z,7.400000
2022-11-21T11:18:05.780Z,7.700000
2022-11-21T11:19:00.426Z,7.700000
2022-11-21T11:20:04.955Z,7.700000
2022-11-21T11:21:00.504Z,8.000000
2022-11-21T11:22:00.886Z,8.000000
2022-11-21T11:23:00.472Z,8.000000
2022-11-21T11:24:00.575Z,8.000000
2022-11-21T11:25:03.781Z,8.000000
2022-11-21T11:26:00.572Z,8.200000
2022-11-21T11:27:00.546Z,8.200000
2022-11-21T11:28:00.637Z,8.200000
2022-11-21T11:29:00.578Z,8.300000
2022-11-21T11:30:04.302Z,8.300000
2022-11-21T11:31:00.531Z,8.300000
2022-11-21T11:32:00.607Z,8.300000
2022-11-21T11:33:00.781Z,8.400000
2022-11-21T11:34:00.744Z,8.400000
2022-11-21T11:35:03.715Z,8.400000
2022-11-21T11:36:00.647Z,8.700000
2022-11-21T11:37:00.578Z,8.700000
2022-11-21T11:38:00.679Z,9.300000
2022-11-21T11:39:00.621Z,9.300000
2022-11-21T11:40:03.884Z,9.300000
2022-11-21T11:41:00.611Z,9.800000
2022-11-21T11:42:00.671Z,9.800000
2022-11-21T11:43:00.624Z,9.800000
2022-11-21T11:44:00.715Z,9.900000